createdAt,value
2019-05-19T08:38:37.826Z,35.40
2019-05-19T08:42:42.751Z,34.90
2019-05-19T08:46:47.803Z,35.40
2019-05-19T08:50:52.368Z,37.10
2019-05-19T08:54:57.122Z,35.90
2019-05-19T08:59:03.498Z,39.30
2019-05-19T09:03:08.117Z,38.10
2019-05-19T09:07:12.802Z,39.60
2019-05-19T09:11:18.896Z,38.80
2019-05-19T09:15:23.483Z,36.60
2019-05-19T09:19:28.628Z,37.10
2019-05-19T09:23:33.379Z,38.20
2019-05-19T09:27:38.374Z,36.60
2019-05-19T09:31:43.175Z,34.90
2019-05-19T09:35:48.190Z,36.20
2019-05-19T09:39:53.150Z,36.20
2019-05-19T09:43:57.929Z,36.00
2019-05-19T09:48:02.800Z,34.80
2019-05-19T09:52:07.726Z,35.20
2019-05-19T09:56:12.348Z,34.00
2019-05-19T10:00:17.632Z,38.80
2019-05-19T10:04:22.330Z,37.40
2019-05-19T10:08:35.786Z,38.10
2019-05-19T10:12:41.376Z,38.10
2019-05-19T10:16:46.126Z,33.70
2019-05-19T10:20:50.927Z,32.70
2019-05-19T10:25:10.875Z,34.00
2019-05-19T10:29:02.245Z,33.10
2019-05-19T10:33:09.529Z,34.00
2019-05-19T10:37:14.950Z,35.70
2019-05-19T10:41:22.955Z,33.90
2019-05-19T10:45:28.608Z,33.80
2019-05-19T10:49:36.178Z,32.40
2019-05-19T10:53:42.117Z,35.70
2019-05-19T10:57:53.804Z,36.50
2019-05-19T11:01:59.966Z,32.40
2019-05-19T11:06:08.314Z,34.80
2019-05-19T11:10:14.145Z,38.20
2019-05-19T11:14:19.867Z,38.10
2019-05-19T11:18:25.079Z,39.50
2019-05-19T11:22:32.004Z,36.40
2019-05-19T11:26:40.245Z,36.10
2019-05-19T11:30:45.933Z,36.50
2019-05-19T11:34:52.037Z,33.80
2019-05-19T11:38:56.991Z,32.80
2019-05-19T11:43:01.701Z,36.80
2019-05-19T11:47:06.706Z,35.40
2019-05-19T11:51:11.360Z,37.00
2019-05-19T11:55:16.050Z,35.40
2019-05-19T11:59:20.651Z,34.30
2019-05-19T12:03:25.574Z,34.60
2019-05-19T12:07:30.287Z,37.40
2019-05-19T12:11:34.910Z,33.40
2019-05-19T12:15:39.822Z,33.10
2019-05-19T12:19:44.517Z,34.10
2019-05-19T12:23:49.871Z,35.20
2019-05-19T12:27:54.483Z,34.20
2019-05-19T12:31:59.302Z,34.60
2019-05-19T12:36:04.066Z,36.40
2019-05-19T12:40:08.912Z,35.70
2019-05-19T12:44:13.521Z,37.70
2019-05-19T12:48:18.221Z,36.90
2019-05-19T12:52:23.348Z,36.50
2019-05-19T12:56:39.155Z,37.70
2019-05-19T13:00:34.422Z,40.40
2019-05-19T13:04:39.111Z,41.80
2019-05-19T13:08:44.094Z,39.70
2019-05-19T13:12:48.804Z,44.30
2019-05-19T13:16:53.524Z,43.20
2019-05-19T13:20:58.123Z,41.00
2019-05-19T13:25:03.205Z,38.70
2019-05-19T13:29:07.831Z,37.40
2019-05-19T13:33:12.503Z,37.40
2019-05-19T13:37:17.138Z,38.10
2019-05-19T13:41:21.878Z,38.70
2019-05-19T13:45:27.668Z,41.90
2019-05-19T13:49:32.327Z,45.50
2019-05-19T13:53:37.007Z,51.40
2019-05-19T13:57:41.887Z,55.60
2019-05-19T14:01:46.587Z,57.40
2019-05-19T14:05:51.231Z,59.30
2019-05-19T14:09:56.344Z,61.10
2019-05-19T14:14:01.322Z,61.00
2019-05-19T14:18:06.147Z,62.00
2019-05-19T14:22:11.052Z,63.50
2019-05-19T14:26:15.827Z,63.10
2019-05-19T14:30:20.940Z,62.00
2019-05-19T14:34:25.544Z,61.80
2019-05-19T14:38:30.511Z,61.90
2019-05-19T14:42:44.590Z,62.80
2019-05-19T14:46:49.315Z,64.90
2019-05-19T14:50:54.016Z,64.80
2019-05-19T14:54:59.759Z,65.30
2019-05-19T14:59:04.634Z,65.50
2019-05-19T15:03:09.520Z,64.60
2019-05-19T15:07:14.265Z,67.90
2019-05-19T15:11:18.960Z,72.70
2019-05-19T15:15:23.666Z,73.70
2019-05-19T15:19:30.152Z,74.40
2019-05-19T15:23:34.751Z,74.20
2019-05-19T15:27:39.379Z,74.10
2019-05-19T15:31:50.210Z,73.40
2019-05-19T15:35:55.076Z,71.80
2019-05-19T15:39:59.757Z,72.50
2019-05-19T15:44:04.615Z,71.30
2019-05-19T15:48:11.008Z,70.80
2019-05-19T15:52:15.748Z,70.60
2019-05-19T15:56:20.574Z,71.20
2019-05-19T16:00:26.529Z,70.70
2019-05-19T16:04:31.382Z,71.60
2019-05-19T16:08:36.132Z,72.40
2019-05-19T16:12:41.163Z,72.70
2019-05-19T16:16:45.989Z,73.10
2019-05-19T16:20:52.066Z,73.90
2019-05-19T16:24:56.725Z,75.30
2019-05-19T16:29:01.587Z,75.50
2019-05-19T16:33:06.495Z,74.70
2019-05-19T16:37:12.241Z,73.50
2019-05-19T16:41:17.106Z,74.50
2019-05-19T16:45:28.303Z,74.90
2019-05-19T16:49:32.991Z,75.70
2019-05-19T16:53:38.934Z,76.20
2019-05-19T16:57:45.318Z,77.00
2019-05-19T17:01:50.021Z,77.30
2019-05-19T17:05:58.678Z,79.60
2019-05-19T17:10:03.363Z,79.70
2019-05-19T17:14:08.515Z,80.40
2019-05-19T17:18:15.492Z,81.80
2019-05-19T17:22:22.595Z,81.40
2019-05-19T17:26:27.753Z,83.20
2019-05-19T17:30:32.598Z,83.50
2019-05-19T17:34:40.326Z,85.20
2019-05-19T17:38:45.071Z,86.00
2019-05-19T17:42:57.650Z,85.90
2019-05-19T17:47:02.779Z,86.00
2019-05-19T17:51:07.542Z,86.00
2019-05-19T17:55:12.470Z,86.70
2019-05-19T17:59:17.303Z,87.20
2019-05-19T18:03:23.005Z,87.00
2019-05-19T18:07:27.701Z,85.10
2019-05-19T18:11:32.490Z,87.00
2019-05-19T18:15:37.598Z,86.70
2019-05-19T18:19:42.370Z,86.90
2019-05-19T18:23:47.070Z,88.80
2019-05-19T18:27:51.791Z,88.30
2019-05-19T18:31:57.098Z,88.70
2019-05-19T18:36:01.783Z,89.40
2019-05-19T18:40:07.418Z,88.40
2019-05-19T18:44:12.267Z,87.80
2019-05-19T18:48:17.057Z,87.60
2019-05-19T18:52:21.752Z,87.40
2019-05-19T18:56:27.441Z,86.40
2019-05-19T19:00:34.753Z,86.20
2019-05-19T19:04:39.419Z,85.10
2019-05-19T19:08:44.115Z,84.60
2019-05-19T19:12:48.776Z,84.40
2019-05-19T19:16:53.689Z,84.60
2019-05-19T19:20:58.352Z,84.20
2019-05-19T19:25:03.130Z,84.80
2019-05-19T19:29:08.023Z,84.90
2019-05-19T19:33:13.801Z,85.00
2019-05-19T19:37:18.810Z,85.50
2019-05-19T19:41:23.408Z,85.70
2019-05-19T19:45:28.240Z,87.00
2019-05-19T19:49:32.874Z,88.30
2019-05-19T19:53:37.718Z,90.80
2019-05-19T19:57:43.128Z,91.70
2019-05-19T20:01:48.226Z,92.20
2019-05-19T20:05:53.017Z,92.30
2019-05-19T20:09:58.317Z,92.00
2019-05-19T20:14:03.087Z,92.50
2019-05-19T20:18:07.837Z,92.00
2019-05-19T20:22:12.567Z,91.90
2019-05-19T20:26:17.373Z,91.90
2019-05-19T20:30:34.664Z,91.50
2019-05-19T20:34:28.831Z,91.00
2019-05-19T20:38:33.884Z,90.70
2019-05-19T20:42:38.637Z,90.90
2019-05-19T20:46:43.666Z,91.10
2019-05-19T20:50:48.283Z,91.30
2019-05-19T20:54:53.209Z,91.50
2019-05-19T20:58:58.280Z,92.00
2019-05-19T21:03:04.013Z,91.50
2019-05-19T21:07:08.674Z,91.80
2019-05-19T21:11:13.698Z,92.00
2019-05-19T21:15:18.402Z,92.20
2019-05-19T21:19:23.081Z,92.40
2019-05-19T21:23:27.706Z,92.60
2019-05-19T21:27:33.380Z,92.90
2019-05-19T21:31:38.006Z,92.90
2019-05-19T21:35:42.650Z,93.00
2019-05-19T21:39:47.331Z,93.30
2019-05-19T21:43:52.011Z,93.40
2019-05-19T21:47:56.650Z,93.50
2019-05-19T21:52:01.288Z,93.60
2019-05-19T21:56:05.914Z,93.50
2019-05-19T22:00:11.131Z,93.70
2019-05-19T22:04:17.360Z,94.10
2019-05-19T22:08:22.340Z,94.20
2019-05-19T22:12:27.080Z,94.40
2019-05-19T22:16:32.045Z,94.60
2019-05-19T22:20:36.854Z,94.80
2019-05-19T22:24:41.551Z,94.90
2019-05-19T22:28:46.175Z,95.20
2019-05-19T22:32:50.827Z,95.40
2019-05-19T22:36:55.759Z,95.70
2019-05-19T22:41:00.484Z,95.80
2019-05-19T22:45:05.592Z,96.00
2019-05-19T22:49:10.290Z,96.30
2019-05-19T22:53:14.958Z,96.50
2019-05-19T22:57:19.699Z,96.80
2019-05-19T23:01:24.462Z,96.80
2019-05-19T23:05:29.118Z,97.10
2019-05-19T23:09:34.859Z,97.40
2019-05-19T23:13:39.495Z,97.60
2019-05-19T23:17:44.268Z,98.00
2019-05-19T23:21:48.940Z,98.00
2019-05-19T23:25:53.707Z,98.20
2019-05-19T23:29:58.668Z,98.20
2019-05-19T23:34:03.447Z,98.30
2019-05-19T23:38:08.098Z,98.30
2019-05-19T23:42:12.872Z,98.60
2019-05-19T23:46:17.874Z,98.80
2019-05-19T23:50:22.583Z,99.10
2019-05-19T23:54:27.718Z,99.20
2019-05-19T23:58:32.341Z,99.50
